sensor_id;sensor_type;location;lat;lon;timestamp;P1;durP1;ratioP1;P2;durP2;ratioP2
23001;SDS011;11667;51.706;4.856;2022-09-16T00:01:45;0.17;;;0.17;;
23001;SDS011;11667;51.706;4.856;2022-09-16T00:04:15;0.00;;;0.00;;
23001;SDS011;11667;51.706;4.856;2022-09-16T00:06:45;0.00;;;0.00;;
23001;SDS011;11667;51.706;4.856;2022-09-16T00:09:14;0.00;;;0.00;;
23001;SDS011;11667;51.706;4.856;2022-09-16T00:11:44;0.00;;;0.00;;
23001;SDS011;11667;51.706;4.856;2022-09-16T00:14:13;0.00;;;0.00;;
23001;SDS011;11667;51.706;4.856;2022-09-16T00:16:43;0.00;;;0.00;;
23001;SDS011;11667;51.706;4.856;2022-09-16T00:19:12;2.08;;;0.37;;
23001;SDS011;11667;51.706;4.856;2022-09-16T00:21:41;0.00;;;0.00;;
23001;SDS011;11667;51.706;4.856;2022-09-16T00:24:11;0.10;;;0.10;;
23001;SDS011;11667;51.706;4.856;2022-09-16T00:26:42;0.20;;;0.20;;
23001;SDS011;11667;51.706;4.856;2022-09-16T00:29:11;0.00;;;0.00;;
23001;SDS011;11667;51.706;4.856;2022-09-16T00:31:41;0.10;;;0.10;;
23001;SDS011;11667;51.706;4.856;2022-09-16T00:34:10;0.00;;;0.00;;
23001;SDS011;11667;51.706;4.856;2022-09-16T00:36:39;0.00;;;0.00;;
23001;SDS011;11667;51.706;4.856;2022-09-16T00:39:08;0.00;;;0.00;;
23001;SDS011;11667;51.706;4.856;2022-09-16T00:41:38;0.00;;;0.00;;
23001;SDS011;11667;51.706;4.856;2022-09-16T00:47:14;0.00;;;0.00;;
23001;SDS011;11667;51.706;4.856;2022-09-16T00:49:46;0.00;;;0.00;;
23001;SDS011;11667;51.706;4.856;2022-09-16T00:52:16;0.23;;;0.23;;
23001;SDS011;11667;51.706;4.856;2022-09-16T00:54:49;0.00;;;0.00;;
23001;SDS011;11667;51.706;4.856;2022-09-16T00:57:18;0.00;;;0.00;;
23001;SDS011;11667;51.706;4.856;2022-09-16T00:59:49;0.00;;;0.00;;
23001;SDS011;11667;51.706;4.856;2022-09-16T01:02:20;5.62;;;0.90;;
23001;SDS011;11667;51.706;4.856;2022-09-16T01:05:11;1.67;;;0.90;;
23001;SDS011;11667;51.706;4.856;2022-09-16T01:07:42;0.00;;;0.00;;
23001;SDS011;11667;51.706;4.856;2022-09-16T01:10:14;0.00;;;0.00;;
23001;SDS011;11667;51.706;4.856;2022-09-16T01:12:49;0.95;;;0.50;;
23001;SDS011;11667;51.706;4.856;2022-09-16T01:15:21;0.00;;;0.00;;
23001;SDS011;11667;51.706;4.856;2022-09-16T01:17:55;0.42;;;0.42;;
23001;SDS011;11667;51.706;4.856;2022-09-16T01:29:20;0.00;;;0.00;;
23001;SDS011;11667;51.706;4.856;2022-09-16T01:32:16;0.00;;;0.00;;
23001;SDS011;11667;51.706;4.856;2022-09-16T01:34:59;0.10;;;0.10;;
23001;SDS011;11667;51.706;4.856;2022-09-16T01:37:28;0.10;;;0.10;;
23001;SDS011;11667;51.706;4.856;2022-09-16T01:40:12;0.00;;;0.00;;
23001;SDS011;11667;51.706;4.856;2022-09-16T01:45:34;0.28;;;0.15;;
23001;SDS011;11667;51.706;4.856;2022-09-16T01:48:09;0.00;;;0.00;;
23001;SDS011;11667;51.706;4.856;2022-09-16T01:50:41;0.00;;;0.00;;
23001;SDS011;11667;51.706;4.856;2022-09-16T01:56:09;0.00;;;0.00;;
23001;SDS011;11667;51.706;4.856;2022-09-16T01:58:58;0.00;;;0.00;;
23001;SDS011;11667;51.706;4.856;2022-09-16T02:01:25;0.00;;;0.00;;
23001;SDS011;11667;51.706;4.856;2022-09-16T02:04:08;0.00;;;0.00;;
23001;SDS011;11667;51.706;4.856;2022-09-16T02:06:35;0.00;;;0.00;;
23001;SDS011;11667;51.706;4.856;2022-09-16T02:09:07;0.00;;;0.00;;
23001;SDS011;11667;51.706;4.856;2022-09-16T02:11:44;0.00;;;0.00;;
23001;SDS011;11667;51.706;4.856;2022-09-16T02:14:16;0.00;;;0.00;;
23001;SDS011;11667;51.706;4.856;2022-09-16T02:16:52;0.37;;;0.35;;
23001;SDS011;11667;51.706;4.856;2022-09-16T02:19:28;0.88;;;0.80;;
23001;SDS011;11667;51.706;4.856;2022-09-16T02:21:59;0.00;;;0.00;;
23001;SDS011;11667;51.706;4.856;2022-09-16T02:24:30;0.15;;;0.15;;
23001;SDS011;11667;51.706;4.856;2022-09-16T02:27:01;0.10;;;0.10;;
23001;SDS011;11667;51.706;4.856;2022-09-16T02:29:33;0.00;;;0.00;;
23001;SDS011;11667;51.706;4.856;2022-09-16T02:32:07;0.00;;;0.00;;
23001;SDS011;11667;51.706;4.856;2022-09-16T02:34:43;0.00;;;0.00;;
23001;SDS011;11667;51.706;4.856;2022-09-16T02:37:27;0.00;;;0.00;;
23001;SDS011;11667;51.706;4.856;2022-09-16T02:39:58;0.13;;;0.10;;
23001;SDS011;11667;51.706;4.856;2022-09-16T02:42:31;0.00;;;0.00;;
23001;SDS011;11667;51.706;4.856;2022-09-16T02:45:01;0.00;;;0.00;;
23001;SDS011;11667;51.706;4.856;2022-09-16T02:47:34;0.55;;;0.37;;
23001;SDS011;11667;51.706;4.856;2022-09-16T02:53:01;0.00;;;0.00;;
23001;SDS011;11667;51.706;4.856;2022-09-16T02:55:37;1.00;;;0.45;;
23001;SDS011;11667;51.706;4.856;2022-09-16T02:58:06;0.00;;;0.00;;
23001;SDS011;11667;51.706;4.856;2022-09-16T03:00:37;0.28;;;0.28;;
23001;SDS011;11667;51.706;4.856;2022-09-16T03:03:08;0.00;;;0.00;;
23001;SDS011;11667;51.706;4.856;2022-09-16T03:06:14;0.00;;;0.00;;
23001;SDS011;11667;51.706;4.856;2022-09-16T03:08:33;0.68;;;0.55;;
23001;SDS011;11667;51.706;4.856;2022-09-16T03:24:44;0.00;;;0.00;;
23001;SDS011;11667;51.706;4.856;2022-09-16T03:27:33;0.00;;;0.00;;
23001;SDS011;11667;51.706;4.856;2022-09-16T03:30:04;0.00;;;0.00;;
23001;SDS011;11667;51.706;4.856;2022-09-16T03:32:38;0.00;;;0.00;;
23001;SDS011;11667;51.706;4.856;2022-09-16T03:35:29;0.00;;;0.00;;
23001;SDS011;11667;51.706;4.856;2022-09-16T03:38:09;0.00;;;0.00;;
23001;SDS011;11667;51.706;4.856;2022-09-16T03:40:41;0.00;;;0.00;;
23001;SDS011;11667;51.706;4.856;2022-09-16T03:43:11;0.00;;;0.00;;
23001;SDS011;11667;51.706;4.856;2022-09-16T03:45:42;0.00;;;0.00;;
23001;SDS011;11667;51.706;4.856;2022-09-16T03:48:12;0.00;;;0.00;;
23001;SDS011;11667;51.706;4.856;2022-09-16T03:50:42;0.00;;;0.00;;
23001;SDS011;11667;51.706;4.856;2022-09-16T03:53:11;0.00;;;0.00;;
23001;SDS011;11667;51.706;4.856;2022-09-16T03:55:40;0.00;;;0.00;;
23001;SDS011;11667;51.706;4.856;2022-09-16T03:58:10;0.00;;;0.00;;
23001;SDS011;11667;51.706;4.856;2022-09-16T04:00:39;0.10;;;0.10;;
23001;SDS011;11667;51.706;4.856;2022-09-16T04:03:08;0.00;;;0.00;;
23001;SDS011;11667;51.706;4.856;2022-09-16T04:05:37;0.00;;;0.00;;
23001;SDS011;11667;51.706;4.856;2022-09-16T04:08:07;0.00;;;0.00;;
23001;SDS011;11667;51.706;4.856;2022-09-16T04:10:36;0.00;;;0.00;;
23001;SDS011;11667;51.706;4.856;2022-09-16T04:13:05;0.00;;;0.00;;
23001;SDS011;11667;51.706;4.856;2022-09-16T04:15:36;4.58;;;0.57;;
23001;SDS011;11667;51.706;4.856;2022-09-16T04:18:05;0.00;;;0.00;;
23001;SDS011;11667;51.706;4.856;2022-09-16T04:20:34;0.00;;;0.00;;
23001;SDS011;11667;51.706;4.856;2022-09-16T04:23:04;0.00;;;0.00;;
23001;SDS011;11667;51.706;4.856;2022-09-16T04:25:33;0.00;;;0.00;;
23001;SDS011;11667;51.706;4.856;2022-09-16T04:28:02;0.10;;;0.10;;
23001;SDS011;11667;51.706;4.856;2022-09-16T04:30:32;0.68;;;0.35;;
23001;SDS011;11667;51.706;4.856;2022-09-16T04:33:02;0.62;;;0.25;;
23001;SDS011;11667;51.706;4.856;2022-09-16T04:35:31;0.00;;;0.00;;
23001;SDS011;11667;51.706;4.856;2022-09-16T04:38:00;0.00;;;0.00;;
23001;SDS011;11667;51.706;4.856;2022-09-16T04:40:30;0.00;;;0.00;;
23001;SDS011;11667;51.706;4.856;2022-09-16T04:42:59;0.00;;;0.00;;
23001;SDS011;11667;51.706;4.856;2022-09-16T04:45:29;0.00;;;0.00;;
23001;SDS011;11667;51.706;4.856;2022-09-16T04:47:58;0.00;;;0.00;;
23001;SDS011;11667;51.706;4.856;2022-09-16T04:50:27;0.00;;;0.00;;
23001;SDS011;11667;51.706;4.856;2022-09-16T04:52:57;0.08;;;0.08;;
23001;SDS011;11667;51.706;4.856;2022-09-16T04:55:26;0.00;;;0.00;;
23001;SDS011;11667;51.706;4.856;2022-09-16T04:57:57;0.00;;;0.00;;
23001;SDS011;11667;51.706;4.856;2022-09-16T05:00:27;0.15;;;0.15;;
23001;SDS011;11667;51.706;4.856;2022-09-16T05:02:57;0.00;;;0.00;;
23001;SDS011;11667;51.706;4.856;2022-09-16T05:05:26;0.05;;;0.05;;
23001;SDS011;11667;51.706;4.856;2022-09-16T05:07:56;0.00;;;0.00;;
23001;SDS011;11667;51.706;4.856;2022-09-16T05:10:25;0.00;;;0.00;;
23001;SDS011;11667;51.706;4.856;2022-09-16T05:12:55;0.85;;;0.33;;
23001;SDS011;11667;51.706;4.856;2022-09-16T05:15:24;0.00;;;0.00;;
23001;SDS011;11667;51.706;4.856;2022-09-16T05:17:53;0.00;;;0.00;;
23001;SDS011;11667;51.706;4.856;2022-09-16T05:20:23;0.10;;;0.10;;
23001;SDS011;11667;51.706;4.856;2022-09-16T05:22:52;0.00;;;0.00;;
23001;SDS011;11667;51.706;4.856;2022-09-16T05:25:21;0.00;;;0.00;;
23001;SDS011;11667;51.706;4.856;2022-09-16T05:27:51;0.00;;;0.00;;
23001;SDS011;11667;51.706;4.856;2022-09-16T05:30:20;0.00;;;0.00;;
23001;SDS011;11667;51.706;4.856;2022-09-16T05:32:54;0.00;;;0.00;;
23001;SDS011;11667;51.706;4.856;2022-09-16T05:35:23;0.00;;;0.00;;
23001;SDS011;11667;51.706;4.856;2022-09-16T05:37:52;0.00;;;0.00;;
23001;SDS011;11667;51.706;4.856;2022-09-16T05:40:21;0.35;;;0.35;;
23001;SDS011;11667;51.706;4.856;2022-09-16T05:42:51;0.00;;;0.00;;
23001;SDS011;11667;51.706;4.856;2022-09-16T05:45:20;0.15;;;0.15;;
23001;SDS011;11667;51.706;4.856;2022-09-16T05:47:51;0.00;;;0.00;;
23001;SDS011;11667;51.706;4.856;2022-09-16T05:50:20;0.00;;;0.00;;
23001;SDS011;11667;51.706;4.856;2022-09-16T05:52:50;0.00;;;0.00;;
23001;SDS011;11667;51.706;4.856;2022-09-16T05:55:19;0.00;;;0.00;;
23001;SDS011;11667;51.706;4.856;2022-09-16T05:57:48;0.15;;;0.13;;
23001;SDS011;11667;51.706;4.856;2022-09-16T06:00:17;0.10;;;0.10;;
23001;SDS011;11667;51.706;4.856;2022-09-16T06:02:47;0.82;;;0.80;;
23001;SDS011;11667;51.706;4.856;2022-09-16T06:05:16;0.00;;;0.00;;
23001;SDS011;11667;51.706;4.856;2022-09-16T06:07:46;0.30;;;0.30;;
23001;SDS011;11667;51.706;4.856;2022-09-16T06:10:15;0.00;;;0.00;;
23001;SDS011;11667;51.706;4.856;2022-09-16T06:12:45;0.00;;;0.00;;
23001;SDS011;11667;51.706;4.856;2022-09-16T06:15:14;0.28;;;0.28;;
23001;SDS011;11667;51.706;4.856;2022-09-16T06:17:44;0.10;;;0.10;;
23001;SDS011;11667;51.706;4.856;2022-09-16T06:20:13;0.10;;;0.10;;
23001;SDS011;11667;51.706;4.856;2022-09-16T06:22:42;0.00;;;0.00;;
23001;SDS011;11667;51.706;4.856;2022-09-16T06:25:12;8.73;;;0.28;;
23001;SDS011;11667;51.706;4.856;2022-09-16T06:27:41;0.00;;;0.00;;
23001;SDS011;11667;51.706;4.856;2022-09-16T06:30:10;0.00;;;0.00;;
23001;SDS011;11667;51.706;4.856;2022-09-16T06:32:39;0.10;;;0.10;;
23001;SDS011;11667;51.706;4.856;2022-09-16T06:35:09;0.45;;;0.45;;
23001;SDS011;11667;51.706;4.856;2022-09-16T06:37:38;0.00;;;0.00;;
23001;SDS011;11667;51.706;4.856;2022-09-16T06:40:08;1.07;;;0.42;;
23001;SDS011;11667;51.706;4.856;2022-09-16T06:42:37;0.00;;;0.00;;
23001;SDS011;11667;51.706;4.856;2022-09-16T06:45:07;0.10;;;0.10;;
23001;SDS011;11667;51.706;4.856;2022-09-16T06:47:37;0.05;;;0.05;;
23001;SDS011;11667;51.706;4.856;2022-09-16T06:50:06;0.05;;;0.05;;
23001;SDS011;11667;51.706;4.856;2022-09-16T06:52:35;0.00;;;0.00;;
23001;SDS011;11667;51.706;4.856;2022-09-16T06:55:05;0.00;;;0.00;;
23001;SDS011;11667;51.706;4.856;2022-09-16T06:57:35;0.00;;;0.00;;
23001;SDS011;11667;51.706;4.856;2022-09-16T07:00:04;0.10;;;0.10;;
23001;SDS011;11667;51.706;4.856;2022-09-16T07:02:34;0.45;;;0.45;;
23001;SDS011;11667;51.706;4.856;2022-09-16T07:05:06;2.90;;;1.07;;
23001;SDS011;11667;51.706;4.856;2022-09-16T07:07:36;0.00;;;0.00;;
23001;SDS011;11667;51.706;4.856;2022-09-16T07:10:06;0.00;;;0.00;;
23001;SDS011;11667;51.706;4.856;2022-09-16T07:12:35;0.00;;;0.00;;
23001;SDS011;11667;51.706;4.856;2022-09-16T07:15:05;2.00;;;0.93;;
23001;SDS011;11667;51.706;4.856;2022-09-16T07:17:35;0.00;;;0.00;;
23001;SDS011;11667;51.706;4.856;2022-09-16T07:20:05;0.00;;;0.00;;
23001;SDS011;11667;51.706;4.856;2022-09-16T07:22:35;0.10;;;0.10;;
23001;SDS011;11667;51.706;4.856;2022-09-16T07:25:05;0.10;;;0.10;;
23001;SDS011;11667;51.706;4.856;2022-09-16T07:27:34;0.00;;;0.00;;
23001;SDS011;11667;51.706;4.856;2022-09-16T07:30:04;0.47;;;0.47;;
23001;SDS011;11667;51.706;4.856;2022-09-16T07:32:35;0.00;;;0.00;;
23001;SDS011;11667;51.706;4.856;2022-09-16T07:35:05;0.00;;;0.00;;
23001;SDS011;11667;51.706;4.856;2022-09-16T07:37:35;0.00;;;0.00;;
23001;SDS011;11667;51.706;4.856;2022-09-16T07:40:06;0.00;;;0.00;;
23001;SDS011;11667;51.706;4.856;2022-09-16T07:42:36;0.10;;;0.10;;
23001;SDS011;11667;51.706;4.856;2022-09-16T07:45:05;0.00;;;0.00;;
23001;SDS011;11667;51.706;4.856;2022-09-16T07:47:35;0.00;;;0.00;;
23001;SDS011;11667;51.706;4.856;2022-09-16T07:50:05;0.00;;;0.00;;
23001;SDS011;11667;51.706;4.856;2022-09-16T07:52:34;0.00;;;0.00;;
23001;SDS011;11667;51.706;4.856;2022-09-16T07:55:04;0.00;;;0.00;;
23001;SDS011;11667;51.706;4.856;2022-09-16T07:57:34;0.00;;;0.00;;
23001;SDS011;11667;51.706;4.856;2022-09-16T08:00:03;0.55;;;0.30;;
23001;SDS011;11667;51.706;4.856;2022-09-16T08:02:35;0.00;;;0.00;;
23001;SDS011;11667;51.706;4.856;2022-09-16T08:05:04;0.75;;;0.25;;
23001;SDS011;11667;51.706;4.856;2022-09-16T08:07:34;0.33;;;0.23;;
23001;SDS011;11667;51.706;4.856;2022-09-16T08:10:04;0.00;;;0.00;;
23001;SDS011;11667;51.706;4.856;2022-09-16T08:12:34;0.00;;;0.00;;
23001;SDS011;11667;51.706;4.856;2022-09-16T08:15:03;0.00;;;0.00;;
23001;SDS011;11667;51.706;4.856;2022-09-16T08:17:33;0.10;;;0.10;;
23001;SDS011;11667;51.706;4.856;2022-09-16T08:20:03;0.00;;;0.00;;
23001;SDS011;11667;51.706;4.856;2022-09-16T08:22:33;0.00;;;0.00;;
23001;SDS011;11667;51.706;4.856;2022-09-16T08:25:03;0.00;;;0.00;;
23001;SDS011;11667;51.706;4.856;2022-09-16T08:27:33;0.00;;;0.00;;
23001;SDS011;11667;51.706;4.856;2022-09-16T08:30:03;0.00;;;0.00;;
23001;SDS011;11667;51.706;4.856;2022-09-16T08:32:33;0.30;;;0.28;;
23001;SDS011;11667;51.706;4.856;2022-09-16T08:35:02;0.00;;;0.00;;
23001;SDS011;11667;51.706;4.856;2022-09-16T08:37:33;0.00;;;0.00;;
23001;SDS011;11667;51.706;4.856;2022-09-16T08:40:03;27.70;;;1.35;;
23001;SDS011;11667;51.706;4.856;2022-09-16T08:45:41;0.00;;;0.00;;
23001;SDS011;11667;51.706;4.856;2022-09-16T08:51:18;0.00;;;0.00;;
23001;SDS011;11667;51.706;4.856;2022-09-16T08:53:53;0.33;;;0.30;;
23001;SDS011;11667;51.706;4.856;2022-09-16T08:56:23;0.00;;;0.00;;
23001;SDS011;11667;51.706;4.856;2022-09-16T08:58:55;0.00;;;0.00;;
23001;SDS011;11667;51.706;4.856;2022-09-16T09:01:34;0.00;;;0.00;;
23001;SDS011;11667;51.706;4.856;2022-09-16T09:04:12;0.00;;;0.00;;
23001;SDS011;11667;51.706;4.856;2022-09-16T09:12:16;0.00;;;0.00;;
23001;SDS011;11667;51.706;4.856;2022-09-16T09:17:36;0.00;;;0.00;;
23001;SDS011;11667;51.706;4.856;2022-09-16T09:26:00;0.00;;;0.00;;
23001;SDS011;11667;51.706;4.856;2022-09-16T09:34:19;0.00;;;0.00;;
23001;SDS011;11667;51.706;4.856;2022-09-16T09:45:33;0.42;;;0.33;;
23001;SDS011;11667;51.706;4.856;2022-09-16T09:48:03;9.33;;;1.25;;
23001;SDS011;11667;51.706;4.856;2022-09-16T09:50:43;0.00;;;0.00;;
23001;SDS011;11667;51.706;4.856;2022-09-16T09:56:00;0.28;;;0.28;;
23001;SDS011;11667;51.706;4.856;2022-09-16T09:58:35;0.00;;;0.00;;
23001;SDS011;11667;51.706;4.856;2022-09-16T10:01:07;0.00;;;0.00;;
23001;SDS011;11667;51.706;4.856;2022-09-16T10:03:37;0.45;;;0.28;;
23001;SDS011;11667;51.706;4.856;2022-09-16T10:06:07;0.20;;;0.13;;
23001;SDS011;11667;51.706;4.856;2022-09-16T10:08:44;0.00;;;0.00;;
23001;SDS011;11667;51.706;4.856;2022-09-16T10:11:20;0.00;;;0.00;;
23001;SDS011;11667;51.706;4.856;2022-09-16T10:13:51;0.08;;;0.08;;
23001;SDS011;11667;51.706;4.856;2022-09-16T10:16:33;0.00;;;0.00;;
23001;SDS011;11667;51.706;4.856;2022-09-16T10:19:18;0.00;;;0.00;;
23001;SDS011;11667;51.706;4.856;2022-09-16T10:21:55;0.00;;;0.00;;
23001;SDS011;11667;51.706;4.856;2022-09-16T10:24:39;0.00;;;0.00;;
23001;SDS011;11667;51.706;4.856;2022-09-16T10:27:21;0.70;;;0.20;;
23001;SDS011;11667;51.706;4.856;2022-09-16T10:30:01;0.00;;;0.00;;
23001;SDS011;11667;51.706;4.856;2022-09-16T10:32:44;0.00;;;0.00;;
23001;SDS011;11667;51.706;4.856;2022-09-16T10:35:13;0.05;;;0.05;;
23001;SDS011;11667;51.706;4.856;2022-09-16T10:37:46;0.00;;;0.00;;
23001;SDS011;11667;51.706;4.856;2022-09-16T10:40:17;0.00;;;0.00;;
23001;SDS011;11667;51.706;4.856;2022-09-16T10:42:55;0.15;;;0.10;;
23001;SDS011;11667;51.706;4.856;2022-09-16T10:45:25;0.00;;;0.00;;
23001;SDS011;11667;51.706;4.856;2022-09-16T10:47:56;0.00;;;0.00;;
23001;SDS011;11667;51.706;4.856;2022-09-16T10:50:28;0.00;;;0.00;;
23001;SDS011;11667;51.706;4.856;2022-09-16T10:52:58;0.00;;;0.00;;
23001;SDS011;11667;51.706;4.856;2022-09-16T10:55:30;0.00;;;0.00;;
23001;SDS011;11667;51.706;4.856;2022-09-16T10:58:10;0.00;;;0.00;;
23001;SDS011;11667;51.706;4.856;2022-09-16T11:00:49;0.00;;;0.00;;
23001;SDS011;11667;51.706;4.856;2022-09-16T11:06:04;0.00;;;0.00;;
23001;SDS011;11667;51.706;4.856;2022-09-16T11:08:53;0.17;;;0.17;;
23001;SDS011;11667;51.706;4.856;2022-09-16T11:11:47;0.15;;;0.10;;
23001;SDS011;11667;51.706;4.856;2022-09-16T11:16:53;0.10;;;0.10;;
23001;SDS011;11667;51.706;4.856;2022-09-16T11:19:34;0.00;;;0.00;;
23001;SDS011;11667;51.706;4.856;2022-09-16T11:22:22;0.00;;;0.00;;
23001;SDS011;11667;51.706;4.856;2022-09-16T11:30:59;0.00;;;0.00;;
23001;SDS011;11667;51.706;4.856;2022-09-16T11:44:47;0.10;;;0.10;;
23001;SDS011;11667;51.706;4.856;2022-09-16T11:47:41;0.00;;;0.00;;
23001;SDS011;11667;51.706;4.856;2022-09-16T11:50:17;0.28;;;0.15;;
23001;SDS011;11667;51.706;4.856;2022-09-16T11:55:50;0.00;;;0.00;;
23001;SDS011;11667;51.706;4.856;2022-09-16T11:58:25;0.00;;;0.00;;
23001;SDS011;11667;51.706;4.856;2022-09-16T12:01:24;0.20;;;0.15;;
23001;SDS011;11667;51.706;4.856;2022-09-16T12:04:12;0.47;;;0.05;;
23001;SDS011;11667;51.706;4.856;2022-09-16T12:06:56;4.22;;;0.95;;
23001;SDS011;11667;51.706;4.856;2022-09-16T12:09:32;3.58;;;0.80;;
23001;SDS011;11667;51.706;4.856;2022-09-16T12:12:08;3.92;;;1.00;;
23001;SDS011;11667;51.706;4.856;2022-09-16T12:17:07;3.77;;;0.98;;
23001;SDS011;11667;51.706;4.856;2022-09-16T12:19:41;3.67;;;0.90;;
23001;SDS011;11667;51.706;4.856;2022-09-16T12:22:24;5.53;;;1.17;;
23001;SDS011;11667;51.706;4.856;2022-09-16T12:27:43;4.33;;;0.85;;
23001;SDS011;11667;51.706;4.856;2022-09-16T12:30:33;4.83;;;0.78;;
23001;SDS011;11667;51.706;4.856;2022-09-16T12:33:05;6.28;;;0.90;;
23001;SDS011;11667;51.706;4.856;2022-09-16T12:36:03;6.35;;;1.10;;
23001;SDS011;11667;51.706;4.856;2022-09-16T12:38:45;4.65;;;1.07;;
23001;SDS011;11667;51.706;4.856;2022-09-16T12:50:17;7.45;;;1.30;;
23001;SDS011;11667;51.706;4.856;2022-09-16T12:53:29;2.70;;;0.90;;
23001;SDS011;11667;51.706;4.856;2022-09-16T12:56:07;6.03;;;1.12;;
23001;SDS011;11667;51.706;4.856;2022-09-16T13:01:34;7.45;;;1.05;;
23001;SDS011;11667;51.706;4.856;2022-09-16T13:04:19;4.22;;;1.20;;
23001;SDS011;11667;51.706;4.856;2022-09-16T13:07:02;5.40;;;1.27;;
23001;SDS011;11667;51.706;4.856;2022-09-16T13:09:38;5.03;;;1.10;;
23001;SDS011;11667;51.706;4.856;2022-09-16T13:12:18;6.30;;;1.30;;
23001;SDS011;11667;51.706;4.856;2022-09-16T13:14:52;7.75;;;0.95;;
23001;SDS011;11667;51.706;4.856;2022-09-16T13:17:31;6.80;;;1.50;;
23001;SDS011;11667;51.706;4.856;2022-09-16T13:20:16;6.67;;;1.35;;
23001;SDS011;11667;51.706;4.856;2022-09-16T13:22:48;6.15;;;1.00;;
23001;SDS011;11667;51.706;4.856;2022-09-16T13:25:28;6.75;;;1.25;;
23001;SDS011;11667;51.706;4.856;2022-09-16T13:28:01;8.55;;;1.40;;
23001;SDS011;11667;51.706;4.856;2022-09-16T13:30:37;5.67;;;1.60;;
23001;SDS011;11667;51.706;4.856;2022-09-16T13:36:31;3.98;;;0.90;;
23001;SDS011;11667;51.706;4.856;2022-09-16T13:38:48;6.78;;;1.00;;
23001;SDS011;11667;51.706;4.856;2022-09-16T13:41:35;2.60;;;0.70;;
23001;SDS011;11667;51.706;4.856;2022-09-16T13:49:49;2.55;;;0.80;;
23001;SDS011;11667;51.706;4.856;2022-09-16T13:52:27;5.15;;;1.40;;
23001;SDS011;11667;51.706;4.856;2022-09-16T13:55:03;4.78;;;0.78;;
23001;SDS011;11667;51.706;4.856;2022-09-16T13:57:47;3.75;;;0.75;;
23001;SDS011;11667;51.706;4.856;2022-09-16T14:00:22;3.22;;;0.60;;
23001;SDS011;11667;51.706;4.856;2022-09-16T14:03:05;3.37;;;0.70;;
23001;SDS011;11667;51.706;4.856;2022-09-16T14:05:53;3.42;;;0.75;;
23001;SDS011;11667;51.706;4.856;2022-09-16T14:14:25;4.58;;;1.10;;
23001;SDS011;11667;51.706;4.856;2022-09-16T14:16:57;8.70;;;1.80;;
23001;SDS011;11667;51.706;4.856;2022-09-16T14:19:31;6.00;;;1.30;;
23001;SDS011;11667;51.706;4.856;2022-09-16T14:24:44;3.95;;;1.10;;
23001;SDS011;11667;51.706;4.856;2022-09-16T14:29:54;5.87;;;1.07;;
23001;SDS011;11667;51.706;4.856;2022-09-16T14:32:27;8.33;;;1.20;;
23001;SDS011;11667;51.706;4.856;2022-09-16T14:34:59;7.87;;;1.02;;
23001;SDS011;11667;51.706;4.856;2022-09-16T14:37:33;4.22;;;1.00;;
23001;SDS011;11667;51.706;4.856;2022-09-16T14:40:05;5.35;;;0.93;;
23001;SDS011;11667;51.706;4.856;2022-09-16T14:42:46;6.55;;;1.07;;
23001;SDS011;11667;51.706;4.856;2022-09-16T14:45:12;5.42;;;1.10;;
23001;SDS011;11667;51.706;4.856;2022-09-16T14:47:43;6.28;;;1.35;;
23001;SDS011;11667;51.706;4.856;2022-09-16T14:50:17;5.33;;;1.10;;
23001;SDS011;11667;51.706;4.856;2022-09-16T14:52:54;6.22;;;1.20;;
23001;SDS011;11667;51.706;4.856;2022-09-16T14:55:28;6.20;;;1.17;;
23001;SDS011;11667;51.706;4.856;2022-09-16T14:58:03;7.65;;;1.25;;
23001;SDS011;11667;51.706;4.856;2022-09-16T15:00:34;5.97;;;1.40;;
23001;SDS011;11667;51.706;4.856;2022-09-16T15:05:53;5.42;;;1.20;;
23001;SDS011;11667;51.706;4.856;2022-09-16T15:08:28;4.30;;;1.20;;
23001;SDS011;11667;51.706;4.856;2022-09-16T15:10:59;9.28;;;1.40;;
23001;SDS011;11667;51.706;4.856;2022-09-16T15:13:34;5.53;;;1.15;;
23001;SDS011;11667;51.706;4.856;2022-09-16T15:16:09;7.58;;;1.37;;
23001;SDS011;11667;51.706;4.856;2022-09-16T15:19:03;10.05;;;1.50;;
23001;SDS011;11667;51.706;4.856;2022-09-16T15:21:22;8.30;;;1.22;;
23001;SDS011;11667;51.706;4.856;2022-09-16T15:23:54;5.53;;;1.27;;
23001;SDS011;11667;51.706;4.856;2022-09-16T15:26:25;6.40;;;1.47;;
23001;SDS011;11667;51.706;4.856;2022-09-16T15:29:02;9.73;;;1.50;;
23001;SDS011;11667;51.706;4.856;2022-09-16T15:31:38;7.45;;;1.27;;
23001;SDS011;11667;51.706;4.856;2022-09-16T15:36:50;7.85;;;1.40;;
23001;SDS011;11667;51.706;4.856;2022-09-16T15:39:24;5.53;;;1.05;;
23001;SDS011;11667;51.706;4.856;2022-09-16T15:50:07;5.22;;;1.42;;
23001;SDS011;11667;51.706;4.856;2022-09-16T15:52:59;7.05;;;2.00;;
23001;SDS011;11667;51.706;4.856;2022-09-16T15:55:34;5.65;;;0.98;;
23001;SDS011;11667;51.706;4.856;2022-09-16T15:58:13;7.12;;;1.57;;
23001;SDS011;11667;51.706;4.856;2022-09-16T16:03:26;8.20;;;1.57;;
23001;SDS011;11667;51.706;4.856;2022-09-16T16:05:58;7.00;;;1.57;;
23001;SDS011;11667;51.706;4.856;2022-09-16T16:08:43;10.00;;;1.90;;
23001;SDS011;11667;51.706;4.856;2022-09-16T16:11:15;8.05;;;1.60;;
23001;SDS011;11667;51.706;4.856;2022-09-16T16:13:46;6.13;;;1.40;;
23001;SDS011;11667;51.706;4.856;2022-09-16T16:16:17;10.00;;;1.82;;
23001;SDS011;11667;51.706;4.856;2022-09-16T16:18:48;9.30;;;1.82;;
23001;SDS011;11667;51.706;4.856;2022-09-16T16:21:17;9.75;;;2.10;;
23001;SDS011;11667;51.706;4.856;2022-09-16T16:23:47;10.80;;;1.80;;
23001;SDS011;11667;51.706;4.856;2022-09-16T16:26:17;9.35;;;2.05;;
23001;SDS011;11667;51.706;4.856;2022-09-16T16:28:46;8.43;;;1.90;;
23001;SDS011;11667;51.706;4.856;2022-09-16T16:31:16;8.83;;;1.82;;
23001;SDS011;11667;51.706;4.856;2022-09-16T16:33:46;11.38;;;2.10;;
23001;SDS011;11667;51.706;4.856;2022-09-16T16:36:16;7.33;;;1.32;;
23001;SDS011;11667;51.706;4.856;2022-09-16T16:38:47;6.25;;;1.70;;
23001;SDS011;11667;51.706;4.856;2022-09-16T16:41:19;8.85;;;1.55;;
23001;SDS011;11667;51.706;4.856;2022-09-16T16:43:50;8.23;;;1.72;;
23001;SDS011;11667;51.706;4.856;2022-09-16T16:46:19;11.25;;;1.60;;
23001;SDS011;11667;51.706;4.856;2022-09-16T16:48:49;10.20;;;1.77;;
23001;SDS011;11667;51.706;4.856;2022-09-16T16:51:19;8.35;;;1.32;;
23001;SDS011;11667;51.706;4.856;2022-09-16T16:53:48;10.95;;;2.62;;
23001;SDS011;11667;51.706;4.856;2022-09-16T16:56:19;9.53;;;1.77;;
23001;SDS011;11667;51.706;4.856;2022-09-16T16:58:48;7.60;;;2.00;;
23001;SDS011;11667;51.706;4.856;2022-09-16T17:01:18;11.70;;;2.08;;
23001;SDS011;11667;51.706;4.856;2022-09-16T17:03:47;8.65;;;2.02;;
23001;SDS011;11667;51.706;4.856;2022-09-16T17:06:17;8.08;;;2.00;;
23001;SDS011;11667;51.706;4.856;2022-09-16T17:08:46;9.60;;;2.10;;
23001;SDS011;11667;51.706;4.856;2022-09-16T17:11:17;12.98;;;2.15;;
23001;SDS011;11667;51.706;4.856;2022-09-16T17:13:49;9.43;;;1.98;;
23001;SDS011;11667;51.706;4.856;2022-09-16T17:16:21;11.28;;;2.02;;
23001;SDS011;11667;51.706;4.856;2022-09-16T17:18:51;15.23;;;2.67;;
23001;SDS011;11667;51.706;4.856;2022-09-16T17:21:22;13.20;;;2.40;;
23001;SDS011;11667;51.706;4.856;2022-09-16T17:23:52;12.28;;;2.30;;
23001;SDS011;11667;51.706;4.856;2022-09-16T17:26:22;11.28;;;2.60;;
23001;SDS011;11667;51.706;4.856;2022-09-16T17:28:51;13.60;;;2.72;;
23001;SDS011;11667;51.706;4.856;2022-09-16T17:31:24;12.47;;;2.85;;
23001;SDS011;11667;51.706;4.856;2022-09-16T17:33:56;14.70;;;3.15;;
23001;SDS011;11667;51.706;4.856;2022-09-16T17:39:02;16.85;;;5.35;;
23001;SDS011;11667;51.706;4.856;2022-09-16T17:41:35;14.20;;;5.33;;
23001;SDS011;11667;51.706;4.856;2022-09-16T17:44:05;17.27;;;4.20;;
23001;SDS011;11667;51.706;4.856;2022-09-16T17:46:35;15.30;;;3.83;;
23001;SDS011;11667;51.706;4.856;2022-09-16T17:49:06;13.18;;;3.00;;
23001;SDS011;11667;51.706;4.856;2022-09-16T17:54:06;11.35;;;3.00;;
23001;SDS011;11667;51.706;4.856;2022-09-16T17:56:35;39.60;;;21.10;;